createdAt,value
2023-03-29T00:00:08.133Z,4.73
2023-03-29T00:02:35.808Z,4.53
2023-03-29T00:05:05.239Z,4.62
2023-03-29T00:07:33.891Z,4.59
2023-03-29T00:10:01.970Z,4.61
2023-03-29T00:12:29.852Z,4.70
2023-03-29T00:14:57.767Z,4.49
2023-03-29T00:17:25.380Z,4.38
2023-03-29T00:19:53.082Z,4.57
2023-03-29T00:22:22.290Z,4.72
2023-03-29T00:24:54.282Z,4.36
2023-03-29T00:27:22.164Z,4.39
2023-03-29T00:29:49.643Z,4.41
2023-03-29T00:32:17.222Z,4.78
2023-03-29T00:34:46.062Z,4.86
2023-03-29T00:37:14.742Z,5.08
2023-03-29T00:39:44.582Z,5.42
2023-03-29T00:42:13.733Z,5.63
2023-03-29T00:45:04.040Z,5.58
2023-03-29T00:47:37.489Z,5.02
2023-03-29T00:50:12.336Z,5.37
2023-03-29T00:52:42.268Z,5.55
2023-03-29T00:55:15.719Z,5.43
2023-03-29T00:57:46.403Z,5.24
2023-03-29T01:00:20.866Z,5.32
2023-03-29T01:02:54.104Z,5.38
2023-03-29T01:05:27.125Z,5.70
2023-03-29T01:07:59.705Z,5.83
2023-03-29T01:10:33.963Z,5.97
2023-03-29T01:13:09.405Z,5.99
2023-03-29T01:15:39.571Z,5.70
2023-03-29T01:18:07.373Z,5.63
2023-03-29T01:20:49.015Z,5.44
2023-03-29T01:23:46.921Z,5.68
2023-03-29T01:26:24.901Z,5.51
2023-03-29T01:28:59.472Z,5.88
2023-03-29T01:31:30.993Z,6.03
2023-03-29T01:34:04.305Z,6.00
2023-03-29T01:36:37.928Z,5.74
2023-03-29T01:39:07.419Z,5.39
2023-03-29T01:41:42.498Z,4.86
2023-03-29T01:44:16.475Z,4.74
2023-03-29T01:46:47.868Z,4.70
2023-03-29T01:49:22.813Z,4.70
2023-03-29T01:51:54.863Z,4.34
2023-03-29T01:54:28.056Z,4.27
2023-03-29T01:56:57.438Z,4.36
2023-03-29T01:59:29.352Z,4.18
2023-03-29T02:02:00.486Z,4.33
2023-03-29T02:04:31.619Z,4.41
2023-03-29T02:07:00.806Z,4.66
2023-03-29T02:09:30.187Z,4.50
2023-03-29T02:12:00.340Z,4.13
2023-03-29T02:14:30.372Z,4.07
2023-03-29T02:16:57.910Z,3.98
2023-03-29T02:19:27.907Z,3.97
2023-03-29T02:22:01.862Z,3.90
2023-03-29T02:24:32.853Z,3.74
2023-03-29T02:27:01.411Z,3.89
2023-03-29T02:29:30.586Z,3.93
2023-03-29T02:32:05.009Z,3.79
2023-03-29T02:34:37.511Z,3.72
2023-03-29T02:37:10.256Z,3.55
2023-03-29T02:39:39.484Z,3.53
2023-03-29T02:42:07.649Z,3.55
2023-03-29T02:44:42.534Z,3.74
2023-03-29T02:47:17.046Z,3.59
2023-03-29T02:49:45.008Z,3.70
2023-03-29T02:52:16.904Z,3.44
2023-03-29T02:54:46.553Z,3.74
2023-03-29T02:57:14.060Z,3.81
2023-03-29T02:59:44.079Z,3.94
2023-03-29T03:02:13.540Z,4.20
2023-03-29T03:04:41.370Z,4.21
2023-03-29T03:07:09.306Z,4.21
2023-03-29T03:09:36.907Z,4.34
2023-03-29T03:12:04.531Z,4.48
2023-03-29T03:14:32.000Z,4.61
2023-03-29T03:17:03.086Z,4.44
2023-03-29T03:19:32.260Z,4.45
2023-03-29T03:21:59.764Z,4.31
2023-03-29T03:24:27.978Z,4.35
2023-03-29T03:26:55.470Z,4.50
2023-03-29T03:29:23.220Z,4.46
2023-03-29T03:31:53.833Z,4.69
2023-03-29T03:34:23.808Z,4.48
2023-03-29T03:36:51.340Z,4.30
2023-03-29T03:39:18.862Z,4.41
2023-03-29T03:41:47.369Z,4.12
2023-03-29T03:44:14.862Z,3.87
2023-03-29T03:46:42.328Z,3.61
2023-03-29T03:49:09.843Z,3.74
2023-03-29T03:51:38.684Z,3.98
2023-03-29T03:54:06.753Z,4.05
2023-03-29T03:56:34.242Z,3.95
2023-03-29T03:59:02.063Z,3.67
2023-03-29T04:01:29.516Z,3.64
2023-03-29T04:03:57.038Z,3.78
2023-03-29T04:06:25.357Z,3.51
2023-03-29T04:08:54.223Z,3.89
2023-03-29T04:11:21.761Z,3.61
2023-03-29T04:13:49.767Z,3.49
2023-03-29T04:16:17.327Z,3.24
2023-03-29T04:18:44.922Z,3.19
2023-03-29T04:21:12.595Z,3.00
2023-03-29T04:23:40.138Z,3.26
2023-03-29T04:26:09.031Z,3.06
2023-03-29T04:28:36.552Z,3.03
2023-03-29T04:31:04.382Z,2.95
2023-03-29T04:33:32.234Z,2.99
2023-03-29T04:36:00.390Z,3.20
2023-03-29T04:38:27.983Z,3.19
2023-03-29T04:40:55.852Z,3.27
2023-03-29T04:43:24.852Z,3.19
2023-03-29T04:45:52.315Z,3.13
2023-03-29T04:48:19.897Z,3.32
2023-03-29T04:50:47.645Z,3.46
2023-03-29T04:53:15.242Z,3.59
2023-03-29T04:55:42.729Z,3.82
2023-03-29T04:58:10.203Z,4.02
2023-03-29T05:00:39.105Z,4.12
2023-03-29T05:03:07.431Z,4.14
2023-03-29T05:05:34.964Z,4.04
2023-03-29T05:08:03.225Z,4.17
2023-03-29T05:10:30.885Z,4.11
2023-03-29T05:12:58.336Z,4.31
2023-03-29T05:15:26.107Z,4.40
2023-03-29T05:17:54.924Z,3.88
2023-03-29T05:20:22.754Z,3.69
2023-03-29T05:22:50.210Z,3.40
2023-03-29T05:25:18.715Z,3.32
2023-03-29T05:27:46.636Z,3.30
2023-03-29T05:30:15.653Z,3.44
2023-03-29T05:32:43.269Z,2.81
2023-03-29T05:35:12.385Z,3.00
2023-03-29T05:37:39.974Z,3.15
2023-03-29T05:40:10.295Z,3.21
2023-03-29T05:42:38.575Z,3.06
2023-03-29T05:45:07.398Z,3.04
2023-03-29T05:47:34.868Z,2.99
2023-03-29T05:50:02.338Z,3.38
2023-03-29T05:52:31.513Z,3.36
2023-03-29T05:54:58.977Z,3.71
2023-03-29T05:57:27.819Z,3.60
2023-03-29T05:59:56.412Z,3.67
2023-03-29T06:02:25.583Z,4.13
2023-03-29T06:04:53.894Z,4.07
2023-03-29T06:07:23.318Z,3.75
2023-03-29T06:09:52.161Z,3.72
2023-03-29T06:12:21.782Z,3.51
2023-03-29T06:14:49.276Z,3.58
2023-03-29T06:17:17.417Z,3.52
2023-03-29T06:19:45.243Z,3.46
2023-03-29T06:22:14.827Z,3.58
2023-03-29T06:24:42.449Z,3.89
2023-03-29T06:27:11.259Z,4.15
2023-03-29T06:29:38.753Z,3.87
2023-03-29T06:32:06.637Z,3.94
2023-03-29T06:34:36.061Z,4.15
2023-03-29T06:37:05.820Z,4.15
2023-03-29T06:39:33.577Z,4.22
2023-03-29T06:42:07.347Z,4.03
2023-03-29T06:44:42.093Z,3.80
2023-03-29T06:47:09.574Z,3.59
2023-03-29T06:49:37.095Z,4.06
2023-03-29T06:52:04.892Z,4.14
2023-03-29T06:54:33.477Z,4.29
2023-03-29T06:57:01.340Z,4.33
2023-03-29T06:59:28.868Z,4.31
2023-03-29T07:01:58.430Z,4.58
2023-03-29T07:04:26.083Z,4.73
2023-03-29T07:07:01.410Z,4.78
2023-03-29T07:09:30.762Z,4.82
2023-03-29T07:11:58.747Z,4.49
2023-03-29T07:14:28.807Z,4.42
2023-03-29T07:16:59.292Z,4.57
2023-03-29T07:19:28.664Z,4.78
2023-03-29T07:21:57.016Z,4.46
2023-03-29T07:24:24.476Z,4.49
2023-03-29T07:27:03.321Z,4.89
2023-03-29T07:29:32.078Z,4.89
2023-03-29T07:32:00.870Z,4.95
2023-03-29T07:34:30.012Z,5.05
2023-03-29T07:36:57.692Z,5.11
2023-03-29T07:39:26.109Z,4.98
2023-03-29T07:41:53.587Z,5.29
2023-03-29T07:44:21.543Z,5.33
2023-03-29T07:46:49.473Z,5.01
2023-03-29T07:49:19.809Z,5.11
2023-03-29T07:51:49.206Z,5.16
2023-03-29T07:54:16.848Z,5.32
2023-03-29T07:56:44.463Z,5.28
2023-03-29T07:59:11.958Z,5.54
2023-03-29T08:01:40.823Z,5.38
2023-03-29T08:04:09.585Z,5.35
2023-03-29T08:06:38.586Z,5.57
2023-03-29T08:09:06.197Z,5.52
2023-03-29T08:11:33.686Z,5.51
2023-03-29T08:14:01.152Z,5.58
2023-03-29T08:16:28.682Z,5.58
2023-03-29T08:18:56.196Z,6.17
2023-03-29T08:21:23.691Z,6.26
2023-03-29T08:23:52.545Z,6.36
2023-03-29T08:26:20.156Z,6.53
2023-03-29T08:28:47.656Z,6.53
2023-03-29T08:31:16.581Z,6.81
2023-03-29T08:33:44.392Z,7.00
2023-03-29T08:36:12.382Z,7.15
2023-03-29T08:38:39.886Z,7.37
2023-03-29T08:41:27.152Z,7.70
2023-03-29T08:44:07.910Z,7.66
2023-03-29T08:46:45.087Z,7.75
2023-03-29T08:49:13.320Z,8.05
2023-03-29T08:51:45.316Z,8.62
2023-03-29T08:54:18.097Z,8.74
2023-03-29T08:56:47.841Z,8.44
2023-03-29T08:59:20.888Z,9.05
2023-03-29T09:01:51.027Z,9.36
2023-03-29T09:04:22.754Z,10.15
2023-03-29T09:06:50.678Z,10.07
2023-03-29T09:09:20.710Z,10.36
2023-03-29T09:12:02.681Z,10.75
2023-03-29T09:14:41.875Z,10.63
2023-03-29T09:17:21.449Z,10.58
2023-03-29T09:19:55.963Z,10.33
2023-03-29T09:22:30.322Z,10.31
2023-03-29T09:25:10.014Z,10.61
2023-03-29T09:27:48.920Z,11.17
2023-03-29T09:30:25.859Z,11.49
2023-03-29T09:32:54.805Z,11.37
2023-03-29T09:35:26.096Z,11.37
2023-03-29T09:37:55.189Z,11.79
2023-03-29T09:40:27.648Z,11.22
2023-03-29T09:42:57.973Z,11.01
2023-03-29T09:45:25.795Z,11.40
2023-03-29T09:47:57.674Z,11.46
2023-03-29T09:50:31.962Z,11.49
2023-03-29T09:52:59.806Z,11.89
2023-03-29T09:55:30.211Z,12.08
2023-03-29T09:58:02.627Z,12.27
2023-03-29T10:00:30.171Z,11.92
2023-03-29T10:03:00.024Z,12.25
2023-03-29T10:05:37.692Z,12.36
2023-03-29T10:08:19.820Z,12.39
2023-03-29T10:10:48.392Z,11.91
2023-03-29T10:13:23.066Z,11.83
2023-03-29T10:16:09.876Z,11.79
2023-03-29T10:18:42.556Z,11.90
2023-03-29T10:21:14.388Z,11.83
2023-03-29T10:23:42.581Z,11.98
2023-03-29T10:26:15.662Z,12.15
2023-03-29T10:28:44.705Z,12.20
2023-03-29T10:31:19.134Z,12.62
2023-03-29T10:33:53.148Z,12.93
2023-03-29T10:36:20.954Z,13.24
2023-03-29T10:38:49.046Z,13.58
2023-03-29T10:41:18.468Z,13.93
2023-03-29T10:43:50.812Z,14.34
2023-03-29T10:46:23.453Z,14.09
2023-03-29T10:48:52.836Z,14.62
2023-03-29T10:51:20.581Z,14.70
2023-03-29T10:53:48.204Z,15.16
2023-03-29T10:56:34.983Z,14.97
2023-03-29T10:59:17.838Z,14.65
2023-03-29T11:01:58.807Z,14.21
2023-03-29T11:04:37.259Z,14.46
2023-03-29T11:07:27.140Z,14.07
2023-03-29T11:10:11.714Z,13.83
2023-03-29T11:12:45.258Z,13.75
2023-03-29T11:15:30.118Z,13.13
2023-03-29T11:18:18.667Z,13.35
2023-03-29T11:20:55.178Z,13.59
2023-03-29T11:23:37.490Z,13.96
2023-03-29T11:26:13.938Z,13.93
2023-03-29T11:28:49.709Z,14.14
2023-03-29T11:31:39.090Z,14.16
2023-03-29T11:34:27.462Z,14.66
2023-03-29T11:37:02.553Z,14.51
2023-03-29T11:39:41.619Z,14.31
2023-03-29T11:42:16.574Z,14.65
2023-03-29T11:44:47.168Z,14.45
2023-03-29T11:47:19.612Z,14.13
2023-03-29T11:49:51.750Z,14.32
2023-03-29T11:52:24.483Z,14.38
2023-03-29T11:54:58.322Z,13.95
2023-03-29T11:57:29.943Z,13.76
2023-03-29T12:00:05.129Z,13.56
2023-03-29T12:02:39.366Z,13.25
2023-03-29T12:05:14.409Z,13.38
2023-03-29T12:07:46.743Z,12.98
2023-03-29T12:10:20.350Z,12.77
2023-03-29T12:12:53.857Z,12.06
2023-03-29T12:15:24.850Z,11.84
2023-03-29T12:18:03.532Z,12.36
2023-03-29T12:20:34.601Z,11.91
2023-03-29T12:23:02.676Z,11.32
2023-03-29T12:25:35.509Z,11.29
2023-03-29T12:28:17.169Z,11.32
2023-03-29T12:30:55.333Z,11.73
2023-03-29T12:33:41.789Z,12.01
2023-03-29T12:36:20.328Z,12.29
2023-03-29T12:38:52.338Z,12.54
2023-03-29T12:41:21.893Z,12.67
2023-03-29T12:43:50.374Z,12.19
2023-03-29T12:46:20.209Z,11.42
2023-03-29T12:48:52.067Z,11.21
2023-03-29T12:51:22.787Z,11.81
2023-03-29T12:53:53.293Z,12.09
2023-03-29T12:56:23.674Z,11.46
2023-03-29T12:58:56.365Z,11.78
2023-03-29T13:01:28.264Z,11.83
2023-03-29T13:04:16.808Z,11.81
2023-03-29T13:07:05.968Z,12.29
2023-03-29T13:09:36.707Z,12.85
2023-03-29T13:12:14.449Z,12.77
2023-03-29T13:14:44.982Z,12.54
2023-03-29T13:17:25.520Z,12.81
2023-03-29T13:20:09.233Z,13.60
2023-03-29T13:22:48.266Z,13.96
2023-03-29T13:25:29.742Z,14.55
2023-03-29T13:28:04.422Z,14.52
2023-03-29T13:30:45.392Z,14.18
2023-03-29T13:33:31.451Z,13.92
2023-03-29T13:36:07.475Z,13.60
2023-03-29T13:38:46.413Z,13.84
2023-03-29T13:41:28.674Z,13.17
2023-03-29T13:43:57.558Z,13.40
2023-03-29T13:46:36.332Z,13.11
2023-03-29T13:49:16.293Z,13.02
2023-03-29T13:52:05.458Z,13.17
2023-03-29T13:54:37.040Z,13.38
2023-03-29T13:57:09.802Z,14.57
2023-03-29T13:59:44.046Z,16.27
2023-03-29T14:02:20.982Z,16.47
2023-03-29T14:04:52.081Z,15.68
2023-03-29T14:07:26.118Z,15.74
2023-03-29T14:09:56.097Z,16.32
2023-03-29T14:12:23.679Z,16.33
2023-03-29T14:15:03.543Z,15.25
2023-03-29T14:17:31.645Z,14.50
2023-03-29T14:20:01.480Z,14.41
2023-03-29T14:22:34.547Z,14.14
2023-03-29T14:25:06.185Z,13.78
2023-03-29T14:27:37.038Z,14.38
2023-03-29T14:30:20.074Z,13.62
2023-03-29T14:32:49.777Z,14.19
2023-03-29T14:35:17.498Z,14.69
2023-03-29T14:37:48.901Z,14.70
2023-03-29T14:40:19.813Z,13.90
2023-03-29T14:42:49.021Z,13.40
2023-03-29T14:45:19.454Z,13.43
2023-03-29T14:47:47.970Z,14.38
2023-03-29T14:50:22.358Z,13.92
2023-03-29T14:52:52.610Z,13.93
2023-03-29T14:55:23.675Z,14.27
2023-03-29T14:57:52.683Z,14.74
2023-03-29T15:00:26.819Z,15.11
2023-03-29T15:02:57.711Z,15.31
2023-03-29T15:05:32.909Z,15.44
2023-03-29T15:08:03.672Z,16.04
2023-03-29T15:10:34.246Z,15.97
2023-03-29T15:13:03.455Z,15.68
2023-03-29T15:15:34.543Z,14.92
2023-03-29T15:18:03.546Z,14.37
2023-03-29T15:20:34.728Z,13.85
2023-03-29T15:23:05.372Z,13.43
2023-03-29T15:25:37.207Z,13.27
2023-03-29T15:28:05.321Z,12.84
2023-03-29T15:30:35.363Z,12.69
2023-03-29T15:33:16.325Z,12.75
2023-03-29T15:35:50.413Z,12.83
2023-03-29T15:38:23.367Z,12.95
2023-03-29T15:40:55.439Z,13.05
2023-03-29T15:43:23.552Z,13.22
2023-03-29T15:45:51.132Z,13.39
2023-03-29T15:48:21.456Z,13.43
2023-03-29T15:50:49.027Z,13.47
2023-03-29T15:53:18.474Z,13.31
2023-03-29T15:55:50.913Z,13.57
2023-03-29T15:58:21.370Z,13.42
2023-03-29T16:00:54.731Z,13.04
2023-03-29T16:03:24.471Z,13.15
2023-03-29T16:05:54.121Z,13.13
2023-03-29T16:08:21.614Z,12.89
2023-03-29T16:10:50.426Z,13.23
2023-03-29T16:13:17.886Z,13.14
2023-03-29T16:15:45.539Z,13.01
2023-03-29T16:18:13.301Z,13.00
2023-03-29T16:20:41.500Z,13.08
2023-03-29T16:23:09.706Z,13.23
2023-03-29T16:25:39.834Z,13.09
2023-03-29T16:28:09.998Z,12.75
2023-03-29T16:30:38.469Z,13.04
2023-03-29T16:33:08.465Z,12.80
2023-03-29T16:35:38.469Z,12.67
2023-03-29T16:38:06.351Z,12.70
2023-03-29T16:40:34.276Z,12.76
2023-03-29T16:43:02.657Z,12.78
2023-03-29T16:45:31.741Z,12.53
2023-03-29T16:47:59.357Z,12.28
2023-03-29T16:50:27.029Z,12.02
2023-03-29T16:52:54.563Z,12.07
2023-03-29T16:55:22.046Z,12.02
2023-03-29T16:57:50.869Z,11.82
2023-03-29T17:00:20.190Z,11.86
2023-03-29T17:02:50.498Z,11.72
2023-03-29T17:05:18.877Z,11.46
2023-03-29T17:07:46.840Z,11.37
2023-03-29T17:10:15.440Z,11.23
2023-03-29T17:12:42.928Z,11.37
2023-03-29T17:15:11.281Z,11.54
2023-03-29T17:17:38.894Z,11.89
2023-03-29T17:20:11.888Z,12.13
2023-03-29T17:22:39.520Z,12.03
2023-03-29T17:25:08.492Z,11.63
2023-03-29T17:27:37.297Z,11.58
2023-03-29T17:30:05.550Z,11.60
2023-03-29T17:32:33.325Z,11.44
2023-03-29T17:35:00.862Z,11.48
2023-03-29T17:37:30.129Z,11.69
2023-03-29T17:39:57.606Z,11.63
2023-03-29T17:42:25.261Z,11.23
2023-03-29T17:44:52.743Z,11.00
2023-03-29T17:47:20.592Z,10.84
2023-03-29T17:49:48.078Z,10.58
2023-03-29T17:52:15.550Z,10.41
2023-03-29T17:54:44.422Z,10.53
2023-03-29T17:57:12.059Z,10.59
2023-03-29T17:59:39.682Z,10.37
2023-03-29T18:02:07.700Z,10.53
2023-03-29T18:04:35.555Z,10.41
2023-03-29T18:07:03.028Z,10.65
2023-03-29T18:09:31.136Z,10.60
2023-03-29T18:12:00.031Z,10.42
2023-03-29T18:14:27.512Z,10.36
2023-03-29T18:16:55.743Z,10.24
2023-03-29T18:19:23.455Z,9.98
2023-03-29T18:21:51.025Z,9.92
2023-03-29T18:24:18.553Z,10.17
2023-03-29T18:26:46.043Z,9.73
2023-03-29T18:29:15.434Z,9.65
2023-03-29T18:31:43.519Z,9.74
2023-03-29T18:34:11.112Z,9.83
2023-03-29T18:36:38.708Z,9.74
2023-03-29T18:39:06.315Z,9.75
2023-03-29T18:41:35.536Z,9.71
2023-03-29T18:44:03.024Z,9.68
2023-03-29T18:46:33.110Z,9.60
2023-03-29T18:49:02.041Z,9.72
2023-03-29T18:51:29.642Z,9.70
2023-03-29T18:53:57.345Z,9.70
2023-03-29T18:56:24.822Z,9.99
2023-03-29T18:58:52.374Z,9.91
2023-03-29T19:01:19.906Z,9.91
2023-03-29T19:03:49.083Z,9.77
2023-03-29T19:06:16.810Z,9.73
2023-03-29T19:08:44.329Z,9.87
2023-03-29T19:11:14.178Z,9.79
2023-03-29T19:13:42.238Z,9.66
2023-03-29T19:16:10.266Z,9.56
2023-03-29T19:18:37.796Z,9.58
2023-03-29T19:21:06.903Z,9.67
2023-03-29T19:23:34.453Z,9.97
2023-03-29T19:26:03.689Z,9.85
2023-03-29T19:28:32.087Z,9.88
2023-03-29T19:31:01.515Z,9.93
2023-03-29T19:33:29.317Z,9.76
2023-03-29T19:35:57.173Z,10.07
2023-03-29T19:38:26.264Z,10.16
2023-03-29T19:40:53.775Z,10.48
2023-03-29T19:43:21.433Z,10.35
2023-03-29T19:45:50.727Z,10.61
2023-03-29T19:48:23.420Z,10.72
2023-03-29T19:50:51.396Z,10.63
2023-03-29T19:53:19.008Z,10.66
2023-03-29T19:55:48.646Z,10.82
2023-03-29T19:58:16.128Z,10.39
2023-03-29T20:00:43.603Z,10.66
2023-03-29T20:03:11.244Z,10.80
2023-03-29T20:05:39.708Z,10.58
2023-03-29T20:08:07.485Z,9.80
2023-03-29T20:10:36.796Z,9.90
2023-03-29T20:13:06.483Z,9.85
2023-03-29T20:15:36.011Z,10.30
2023-03-29T20:18:03.573Z,10.22
2023-03-29T20:20:31.674Z,10.29
2023-03-29T20:23:04.516Z,10.29
2023-03-29T20:25:33.040Z,10.06
2023-03-29T20:28:00.598Z,9.94
2023-03-29T20:30:29.675Z,9.66
2023-03-29T20:32:57.453Z,9.59
2023-03-29T20:35:25.545Z,9.55
2023-03-29T20:37:53.018Z,9.78
2023-03-29T20:40:20.751Z,9.39
2023-03-29T20:42:48.865Z,9.34
2023-03-29T20:45:19.259Z,9.23
2023-03-29T20:47:55.873Z,9.22
2023-03-29T20:50:30.074Z,9.34
2023-03-29T20:53:02.043Z,9.25
2023-03-29T20:55:30.358Z,9.07
2023-03-29T20:58:00.662Z,9.06
2023-03-29T21:00:31.444Z,9.41
2023-03-29T21:03:00.526Z,9.37
2023-03-29T21:05:29.589Z,9.70
2023-03-29T21:07:57.330Z,9.54
2023-03-29T21:10:26.318Z,9.55
2023-03-29T21:12:55.066Z,9.43
2023-03-29T21:15:22.584Z,9.23
2023-03-29T21:17:50.129Z,9.41
2023-03-29T21:20:19.816Z,9.59
2023-03-29T21:22:47.323Z,9.67
2023-03-29T21:25:15.787Z,9.64
2023-03-29T21:27:43.728Z,10.18
2023-03-29T21:30:11.852Z,10.35
2023-03-29T21:32:39.420Z,10.13
2023-03-29T21:35:07.970Z,10.44
2023-03-29T21:37:36.805Z,10.05
2023-03-29T21:40:06.440Z,9.98
2023-03-29T21:42:34.900Z,9.73
2023-03-29T21:45:02.615Z,9.59
2023-03-29T21:47:30.912Z,9.44
2023-03-29T21:49:58.431Z,9.46
2023-03-29T21:52:26.046Z,9.79
2023-03-29T21:54:54.890Z,9.48
2023-03-29T21:57:22.400Z,9.15
2023-03-29T21:59:49.994Z,9.23
2023-03-29T22:02:17.490Z,8.76
2023-03-29T22:04:45.163Z,8.76
2023-03-29T22:07:12.636Z,8.52
2023-03-29T22:09:42.204Z,8.62
2023-03-29T22:12:11.988Z,8.84
2023-03-29T22:14:39.508Z,8.93
2023-03-29T22:17:07.063Z,9.03
2023-03-29T22:19:38.755Z,9.40
2023-03-29T22:22:07.238Z,9.40
2023-03-29T22:24:34.752Z,9.08
2023-03-29T22:27:02.548Z,8.97
2023-03-29T22:29:31.402Z,8.98
2023-03-29T22:31:58.913Z,8.75
2023-03-29T22:34:26.483Z,8.71
2023-03-29T22:36:54.002Z,8.91
2023-03-29T22:39:21.476Z,9.08
2023-03-29T22:41:48.939Z,9.24
2023-03-29T22:44:16.416Z,9.07
2023-03-29T22:46:45.477Z,8.91
2023-03-29T22:49:13.160Z,8.54
2023-03-29T22:51:40.646Z,8.46
2023-03-29T22:54:08.688Z,8.35
2023-03-29T22:56:36.244Z,8.27
2023-03-29T22:59:03.748Z,8.31
2023-03-29T23:01:31.294Z,8.11
2023-03-29T23:04:00.227Z,8.24
2023-03-29T23:06:27.806Z,8.15
2023-03-29T23:08:55.390Z,8.41
2023-03-29T23:11:22.948Z,8.28
2023-03-29T23:13:52.444Z,8.34
2023-03-29T23:16:20.708Z,8.55
2023-03-29T23:18:48.433Z,8.32
2023-03-29T23:21:17.557Z,8.53
2023-03-29T23:23:45.045Z,8.55
2023-03-29T23:26:12.605Z,8.53
2023-03-29T23:28:41.029Z,8.50
2023-03-29T23:31:10.687Z,8.61
2023-03-29T23:33:40.330Z,8.97
2023-03-29T23:36:10.732Z,8.46
2023-03-29T23:38:40.667Z,8.55
2023-03-29T23:41:10.799Z,8.49
2023-03-29T23:43:40.286Z,8.58
2023-03-29T23:46:09.629Z,8.56
2023-03-29T23:48:37.949Z,8.51
2023-03-29T23:51:07.737Z,8.60
2023-03-29T23:53:35.301Z,8.68
2023-03-29T23:56:06.146Z,8.89
2023-03-29T23:58:36.765Z,8.84
